createdAt,value
2023-03-18T00:02:44.785Z,10.37
2023-03-18T00:35:06.254Z,8.07
2023-03-18T00:38:22.825Z,8.67
2023-03-18T00:41:15.928Z,8.10
2023-03-18T01:50:10.800Z,9.43
2023-03-18T02:34:16.756Z,9.97
2023-03-18T02:37:09.653Z,9.57
2023-03-18T02:39:43.363Z,9.60
2023-03-18T02:42:15.109Z,9.63
2023-03-18T02:49:15.057Z,9.40
2023-03-18T03:01:20.389Z,9.17
2023-03-18T04:01:48.553Z,9.40
2023-03-18T04:34:02.306Z,10.03
2023-03-18T05:11:04.517Z,8.53
2023-03-18T05:23:29.782Z,10.43
2023-03-18T05:25:58.169Z,10.70
2023-03-18T05:28:28.580Z,9.90
2023-03-18T05:31:12.436Z,9.20
2023-03-18T05:33:44.559Z,8.17
2023-03-18T05:36:16.668Z,8.60
2023-03-18T05:39:47.696Z,8.93
2023-03-18T05:42:54.921Z,8.13
2023-03-18T05:55:00.196Z,9.93
2023-03-18T05:57:33.490Z,9.53
2023-03-18T06:00:10.459Z,8.63
2023-03-18T06:03:08.253Z,9.70
2023-03-18T06:09:03.353Z,9.83
2023-03-18T06:11:34.545Z,9.43
2023-03-18T06:14:23.139Z,9.33
2023-03-18T06:16:53.677Z,10.83
2023-03-18T06:19:25.384Z,9.97
2023-03-18T06:22:03.986Z,10.37
2023-03-18T06:24:58.690Z,9.40
2023-03-18T06:27:29.130Z,10.03
2023-03-18T06:30:03.469Z,10.30
2023-03-18T06:35:28.663Z,9.33
2023-03-18T06:37:57.401Z,10.23
2023-03-18T06:40:55.832Z,9.73
2023-03-18T06:43:23.861Z,9.53
2023-03-18T06:45:52.792Z,10.10
2023-03-18T06:48:20.465Z,8.90
2023-03-18T06:50:50.693Z,9.97
2023-03-18T06:53:25.308Z,10.70
2023-03-18T06:56:00.980Z,9.63
2023-03-18T06:58:37.698Z,9.67
2023-03-18T07:01:08.554Z,9.63
2023-03-18T07:03:41.227Z,9.70
2023-03-18T07:06:10.216Z,10.00
2023-03-18T07:08:39.598Z,11.10
2023-03-18T07:11:07.241Z,10.23
2023-03-18T07:13:37.498Z,10.70
2023-03-18T07:16:09.590Z,10.10
2023-03-18T07:18:38.024Z,10.73
2023-03-18T07:21:05.842Z,11.03
2023-03-18T07:23:34.374Z,9.47
2023-03-18T07:26:03.113Z,10.73
2023-03-18T07:28:30.595Z,9.97
2023-03-18T07:30:58.294Z,10.17
2023-03-18T07:33:52.087Z,9.97
2023-03-18T07:36:43.672Z,10.07
2023-03-18T07:39:53.326Z,11.07
2023-03-18T07:42:36.266Z,10.37
2023-03-18T07:48:42.737Z,9.20
2023-03-18T07:57:39.679Z,9.97
2023-03-18T08:00:10.728Z,9.73
2023-03-18T08:02:41.354Z,8.70
2023-03-18T08:05:09.144Z,9.63
2023-03-18T08:07:36.872Z,9.67
2023-03-18T08:10:04.820Z,9.43
2023-03-18T08:12:49.007Z,8.97
2023-03-18T08:15:19.201Z,8.43
2023-03-18T08:17:51.298Z,9.03
2023-03-18T08:20:18.876Z,8.57
2023-03-18T08:22:46.600Z,8.37
2023-03-18T08:25:14.316Z,8.30
2023-03-18T08:27:42.035Z,7.70
2023-03-18T08:30:11.067Z,8.47
2023-03-18T08:32:40.541Z,8.03
2023-03-18T08:35:09.832Z,8.40
2023-03-18T08:37:37.528Z,7.70
2023-03-18T08:40:06.346Z,8.70
2023-03-18T08:42:33.705Z,7.37
2023-03-18T08:45:00.993Z,7.20
2023-03-18T08:47:29.433Z,7.60
2023-03-18T08:49:59.685Z,6.80
2023-03-18T08:52:27.191Z,8.03
2023-03-18T08:54:54.885Z,6.80
2023-03-18T08:57:23.028Z,7.27
2023-03-18T08:59:50.517Z,6.33
2023-03-18T09:02:18.309Z,6.70
2023-03-18T09:04:45.933Z,6.27
2023-03-18T09:07:14.688Z,5.83
2023-03-18T09:09:44.389Z,6.67
2023-03-18T09:12:13.973Z,6.47
2023-03-18T09:14:43.836Z,6.23
2023-03-18T09:17:11.290Z,5.80
2023-03-18T09:19:38.996Z,5.30
2023-03-18T09:22:06.969Z,5.37
2023-03-18T09:24:34.933Z,5.20
2023-03-18T09:27:02.300Z,5.50
2023-03-18T09:29:29.650Z,5.67
2023-03-18T09:31:57.799Z,5.10
2023-03-18T09:34:25.231Z,4.60
2023-03-18T09:36:52.492Z,4.27
2023-03-18T09:39:20.913Z,4.80
2023-03-18T09:42:26.927Z,5.07
2023-03-18T09:44:57.707Z,3.77
2023-03-18T09:47:36.849Z,4.17
2023-03-18T09:50:46.321Z,4.03
2023-03-18T09:53:31.654Z,4.50
2023-03-18T09:56:02.097Z,4.20
2023-03-18T09:58:56.608Z,4.00
2023-03-18T10:01:27.848Z,3.83
2023-03-18T10:04:22.985Z,3.93
2023-03-18T10:06:58.192Z,4.13
2023-03-18T10:09:38.588Z,3.63
2023-03-18T10:12:36.536Z,3.87
2023-03-18T10:15:18.137Z,3.70
2023-03-18T10:17:52.468Z,4.10
2023-03-18T10:20:48.232Z,4.47
2023-03-18T10:23:30.159Z,4.10
2023-03-18T10:26:05.296Z,4.00
2023-03-18T10:28:50.362Z,4.00
2023-03-18T10:31:47.828Z,4.50
2023-03-18T10:34:18.960Z,3.67
2023-03-18T10:37:16.211Z,3.97
2023-03-18T10:39:46.321Z,4.30
2023-03-18T10:42:23.784Z,3.97
2023-03-18T10:44:52.262Z,4.23
2023-03-18T10:47:28.036Z,3.80
2023-03-18T10:50:17.696Z,4.03
2023-03-18T10:53:06.680Z,3.63
2023-03-18T10:55:40.202Z,3.87
2023-03-18T10:58:16.926Z,3.80
2023-03-18T11:00:44.939Z,3.73
2023-03-18T11:03:21.706Z,3.60
2023-03-18T11:05:51.563Z,4.30
2023-03-18T11:08:39.466Z,4.60
2023-03-18T11:11:34.481Z,4.10
2023-03-18T11:14:04.172Z,3.70
2023-03-18T11:16:46.845Z,4.67
2023-03-18T11:19:27.827Z,3.93
2023-03-18T11:22:04.482Z,3.73
2023-03-18T11:24:36.524Z,3.40
2023-03-18T11:27:06.221Z,3.90
2023-03-18T11:29:34.994Z,3.90
2023-03-18T11:32:03.045Z,3.67
2023-03-18T11:34:35.381Z,3.90
2023-03-18T11:37:06.200Z,4.67
2023-03-18T11:39:40.780Z,3.83
2023-03-18T11:42:22.560Z,4.23
2023-03-18T11:44:56.208Z,3.10
2023-03-18T11:47:28.652Z,3.57
2023-03-18T11:49:57.351Z,3.37
2023-03-18T11:52:34.557Z,3.50
2023-03-18T11:55:21.744Z,3.70
2023-03-18T11:58:15.730Z,3.33
2023-03-18T12:00:46.615Z,3.33
2023-03-18T12:03:43.532Z,3.40
2023-03-18T12:06:21.283Z,3.13
2023-03-18T12:09:03.203Z,3.50
2023-03-18T12:12:14.176Z,3.20
2023-03-18T12:14:55.818Z,4.03
2023-03-18T12:17:49.257Z,3.47
2023-03-18T12:20:47.859Z,3.27
2023-03-18T12:23:41.634Z,3.90
2023-03-18T12:26:21.194Z,3.67
2023-03-18T12:29:13.555Z,4.23
2023-03-18T12:31:57.284Z,3.67
2023-03-18T12:34:30.540Z,3.77
2023-03-18T12:37:35.876Z,3.37
2023-03-18T12:40:35.608Z,4.10
2023-03-18T12:43:38.905Z,3.70
2023-03-18T12:46:25.010Z,3.40
2023-03-18T12:48:59.162Z,3.40
2023-03-18T12:51:33.399Z,2.97
2023-03-18T12:54:18.101Z,3.17
2023-03-18T12:56:51.057Z,3.03
2023-03-18T12:59:37.401Z,3.40
2023-03-18T13:02:37.230Z,3.37
2023-03-18T13:05:14.052Z,2.50
2023-03-18T13:07:47.202Z,2.83
2023-03-18T13:10:22.472Z,2.93
2023-03-18T13:12:55.406Z,3.13
2023-03-18T13:15:40.154Z,3.00
2023-03-18T13:18:44.798Z,3.10
2023-03-18T13:21:16.934Z,3.10
2023-03-18T13:24:18.793Z,3.10
2023-03-18T13:27:01.475Z,3.53
2023-03-18T13:29:54.180Z,3.00
2023-03-18T13:32:41.566Z,2.97
2023-03-18T13:35:43.471Z,3.00
2023-03-18T13:38:39.061Z,3.70
2023-03-18T13:41:42.116Z,3.30
2023-03-18T13:44:15.391Z,3.20
2023-03-18T13:46:53.724Z,3.30
2023-03-18T13:49:25.069Z,2.90
2023-03-18T13:51:57.866Z,3.20
2023-03-18T13:54:32.294Z,2.73
2023-03-18T13:57:23.971Z,3.40
2023-03-18T13:59:51.307Z,4.50
2023-03-18T14:02:41.297Z,3.23
2023-03-18T14:05:35.606Z,3.10
2023-03-18T14:08:38.650Z,2.63
2023-03-18T14:11:22.738Z,3.47
2023-03-18T14:13:52.765Z,2.60
2023-03-18T14:16:28.340Z,3.20
2023-03-18T14:18:58.195Z,3.83
2023-03-18T14:21:30.460Z,3.53
2023-03-18T14:24:17.949Z,3.47
2023-03-18T14:27:03.547Z,3.53
2023-03-18T14:29:37.049Z,3.37
2023-03-18T14:32:08.547Z,3.30
2023-03-18T14:34:54.048Z,3.70
2023-03-18T14:37:34.094Z,3.20
2023-03-18T14:40:12.492Z,3.13
2023-03-18T14:42:58.328Z,3.30
2023-03-18T14:45:34.414Z,3.20
2023-03-18T14:48:11.533Z,3.50
2023-03-18T14:50:45.894Z,3.40
2023-03-18T14:53:30.826Z,3.57
2023-03-18T14:55:59.274Z,3.37
2023-03-18T14:58:28.304Z,3.00
2023-03-18T15:01:04.700Z,2.83
2023-03-18T15:03:34.003Z,4.07
2023-03-18T15:06:04.638Z,3.27
2023-03-18T15:08:47.826Z,3.60
2023-03-18T15:11:18.724Z,3.37
2023-03-18T15:13:46.403Z,3.80
2023-03-18T15:16:19.728Z,3.40
2023-03-18T15:18:55.684Z,3.03
2023-03-18T15:21:28.804Z,3.90
2023-03-18T15:24:00.930Z,4.30
2023-03-18T15:26:36.362Z,3.27
2023-03-18T15:29:31.374Z,3.40
2023-03-18T15:32:17.994Z,3.60
2023-03-18T15:34:51.394Z,3.40
2023-03-18T15:37:40.713Z,3.30
2023-03-18T15:40:23.079Z,3.80
2023-03-18T15:42:50.889Z,4.03
2023-03-18T15:45:21.362Z,3.57
2023-03-18T15:47:48.998Z,3.50
2023-03-18T15:50:20.490Z,3.63
2023-03-18T15:52:49.166Z,3.57
2023-03-18T15:55:31.392Z,3.50
2023-03-18T15:58:00.172Z,4.03
2023-03-18T16:00:28.736Z,3.70
2023-03-18T16:02:56.611Z,3.40
2023-03-18T16:05:26.782Z,4.00
2023-03-18T16:07:55.122Z,3.90
2023-03-18T16:10:27.374Z,3.67
2023-03-18T16:13:00.705Z,3.70
2023-03-18T16:15:29.648Z,3.50
2023-03-18T16:17:57.692Z,3.30
2023-03-18T16:20:28.796Z,3.60
2023-03-18T16:22:57.110Z,3.53
2023-03-18T16:25:25.763Z,3.17
2023-03-18T16:27:59.925Z,3.60
2023-03-18T16:30:29.611Z,3.53
2023-03-18T16:32:58.493Z,3.37
2023-03-18T16:35:32.847Z,3.50
2023-03-18T16:38:05.397Z,3.70
2023-03-18T16:40:32.782Z,3.40
2023-03-18T16:43:00.432Z,3.60
2023-03-18T16:45:31.202Z,3.97
2023-03-18T16:48:02.117Z,4.63
2023-03-18T16:50:34.832Z,3.90
2023-03-18T16:53:03.565Z,3.40
2023-03-18T16:55:31.584Z,3.30
2023-03-18T16:58:00.089Z,3.30
2023-03-18T17:00:31.640Z,3.33
2023-03-18T17:03:00.352Z,3.23
2023-03-18T17:05:28.765Z,3.30
2023-03-18T17:07:56.768Z,3.67
2023-03-18T17:10:26.234Z,3.00
2023-03-18T17:13:05.755Z,4.40
2023-03-18T17:15:38.060Z,3.30
2023-03-18T17:18:10.566Z,3.50
2023-03-18T17:20:37.874Z,3.03
2023-03-18T17:23:05.762Z,4.07
2023-03-18T17:25:33.430Z,3.30
2023-03-18T17:28:06.755Z,3.70
2023-03-18T17:30:39.410Z,3.93
2023-03-18T17:33:27.702Z,3.30
2023-03-18T17:35:55.300Z,3.90
2023-03-18T17:38:23.266Z,3.40
2023-03-18T17:40:51.243Z,3.30
2023-03-18T17:43:27.361Z,3.80
2023-03-18T17:45:56.635Z,3.53
2023-03-18T17:48:29.564Z,4.43
2023-03-18T17:50:59.926Z,5.00
2023-03-18T17:53:37.414Z,5.27
2023-03-18T17:56:08.385Z,4.70
2023-03-18T17:58:36.020Z,4.20
2023-03-18T18:01:11.996Z,4.27
2023-03-18T18:03:40.487Z,4.50
2023-03-18T18:06:15.406Z,4.33
2023-03-18T18:08:42.742Z,4.90
2023-03-18T18:11:24.219Z,6.07
2023-03-18T18:13:54.313Z,7.00
2023-03-18T18:16:21.804Z,5.40
2023-03-18T18:18:50.159Z,6.57
2023-03-18T18:21:21.272Z,5.63
2023-03-18T18:23:49.042Z,5.57
2023-03-18T18:26:19.618Z,5.47
2023-03-18T18:28:51.534Z,6.43
2023-03-18T18:31:20.704Z,8.67
2023-03-18T18:33:49.993Z,7.63
2023-03-18T18:36:18.127Z,9.03
2023-03-18T18:38:46.165Z,11.90
2023-03-18T18:41:14.498Z,9.60
2023-03-18T18:43:42.002Z,11.10
2023-03-18T18:46:17.356Z,10.00
2023-03-18T18:48:48.830Z,12.87
2023-03-18T18:51:18.897Z,11.67
2023-03-18T18:53:47.536Z,13.20
2023-03-18T18:56:18.556Z,13.33
2023-03-18T18:58:49.723Z,12.67
2023-03-18T19:01:18.614Z,12.50
2023-03-18T19:03:46.784Z,11.87
2023-03-18T19:06:27.904Z,11.40
2023-03-18T19:08:57.625Z,10.40
2023-03-18T19:11:26.973Z,7.60
2023-03-18T19:13:55.363Z,9.00
2023-03-18T19:16:32.183Z,7.77
2023-03-18T19:18:59.964Z,6.67
2023-03-18T19:21:28.141Z,6.60
2023-03-18T19:23:55.526Z,6.10
2023-03-18T19:26:22.803Z,6.63
2023-03-18T19:29:00.054Z,6.30
2023-03-18T19:31:30.629Z,7.97
2023-03-18T19:34:00.155Z,7.10
2023-03-18T19:36:31.345Z,7.57
2023-03-18T19:39:01.018Z,7.37
2023-03-18T19:41:29.332Z,7.70
2023-03-18T19:44:07.229Z,7.30
2023-03-18T19:46:39.498Z,7.67
2023-03-18T19:49:26.467Z,8.30
2023-03-18T19:51:54.727Z,7.87
2023-03-18T19:54:32.688Z,6.90
2023-03-18T19:57:06.620Z,7.73
2023-03-18T19:59:39.258Z,8.10
2023-03-18T20:02:17.019Z,8.10
2023-03-18T20:04:44.441Z,7.30
2023-03-18T20:07:11.904Z,7.97
2023-03-18T20:09:39.380Z,7.43
2023-03-18T20:12:18.184Z,6.53
2023-03-18T20:14:46.084Z,8.03
2023-03-18T20:17:44.062Z,8.20
2023-03-18T20:20:17.408Z,7.97
2023-03-18T20:22:48.362Z,8.73
2023-03-18T20:25:19.674Z,8.57
2023-03-18T20:27:47.565Z,8.77
2023-03-18T20:30:24.983Z,15.00
2023-03-18T20:32:53.034Z,20.03
2023-03-18T20:35:50.318Z,17.67
2023-03-18T20:38:32.172Z,17.23
2023-03-18T20:41:00.879Z,19.27
2023-03-18T20:43:29.659Z,22.37
2023-03-18T20:45:58.810Z,21.03
2023-03-18T20:48:27.752Z,17.13
2023-03-18T20:50:57.312Z,15.73
2023-03-18T20:53:28.053Z,15.57
2023-03-18T20:55:56.241Z,14.53
2023-03-18T20:58:26.544Z,17.37
2023-03-18T21:00:54.384Z,18.37
2023-03-18T21:03:30.568Z,15.40
2023-03-18T21:06:01.567Z,18.47
2023-03-18T21:08:30.202Z,17.30
2023-03-18T21:11:01.591Z,17.67
2023-03-18T21:13:36.176Z,16.70
2023-03-18T21:16:06.319Z,15.93
2023-03-18T21:18:36.188Z,14.90
2023-03-18T21:21:03.779Z,14.47
2023-03-18T21:23:39.068Z,12.53
2023-03-18T21:26:07.188Z,13.83
2023-03-18T21:28:35.191Z,14.63
2023-03-18T21:31:04.992Z,13.40
2023-03-18T21:33:34.865Z,13.17
2023-03-18T21:36:11.860Z,11.93
2023-03-18T21:38:40.402Z,11.63
2023-03-18T21:41:26.327Z,9.97
2023-03-18T21:43:54.096Z,9.07
2023-03-18T21:46:26.918Z,10.27
2023-03-18T21:48:55.921Z,9.73
2023-03-18T21:51:38.693Z,9.83
2023-03-18T21:54:17.976Z,11.73
2023-03-18T21:56:48.705Z,10.97
2023-03-18T21:59:16.342Z,10.60
2023-03-18T22:01:44.028Z,10.83
2023-03-18T22:04:11.701Z,11.27
2023-03-18T22:06:39.000Z,10.80
2023-03-18T22:09:07.422Z,9.77
2023-03-18T22:11:34.787Z,11.00
2023-03-18T22:14:02.208Z,10.43
2023-03-18T22:16:29.916Z,10.17
2023-03-18T22:18:57.688Z,9.70
2023-03-18T22:21:27.453Z,9.40
2023-03-18T22:23:57.969Z,9.83
2023-03-18T22:26:25.356Z,10.30
2023-03-18T22:28:52.806Z,8.87
2023-03-18T22:31:25.587Z,9.50
2023-03-18T22:33:53.792Z,9.57
2023-03-18T22:36:21.876Z,9.90
2023-03-18T22:38:49.808Z,8.60
2023-03-18T22:41:30.997Z,10.07
2023-03-18T22:44:00.050Z,9.43
2023-03-18T22:46:32.020Z,9.50
2023-03-18T22:49:05.205Z,9.77
2023-03-18T22:51:36.098Z,10.20
2023-03-18T22:54:04.591Z,9.57
2023-03-18T22:56:32.619Z,8.90
2023-03-18T22:59:02.808Z,9.13
2023-03-18T23:01:31.584Z,9.07
2023-03-18T23:03:59.079Z,9.07
2023-03-18T23:06:28.742Z,8.73
2023-03-18T23:08:56.111Z,9.37
2023-03-18T23:11:23.406Z,9.33
2023-03-18T23:13:51.999Z,8.00
2023-03-18T23:16:22.034Z,7.97
2023-03-18T23:18:50.383Z,7.97
2023-03-18T23:21:20.471Z,8.63
2023-03-18T23:23:47.966Z,9.43
2023-03-18T23:26:15.714Z,8.40
2023-03-18T23:28:45.433Z,10.50
2023-03-18T23:31:14.873Z,15.67
2023-03-18T23:33:42.899Z,10.27
2023-03-18T23:36:11.621Z,10.23
2023-03-18T23:38:39.022Z,9.13
2023-03-18T23:41:07.265Z,8.97
2023-03-18T23:43:34.843Z,8.97
2023-03-18T23:46:03.358Z,8.70
2023-03-18T23:48:31.379Z,9.67
2023-03-18T23:50:58.653Z,9.30
2023-03-18T23:53:26.330Z,8.90
2023-03-18T23:55:53.580Z,9.70
2023-03-18T23:58:21.115Z,9.40
